Time;durP1;ratioP1;P1;durP2;ratioP2;P2;SDS_P1;SDS_P2;PMS_P1;PMS_P2;Temp;Humidity;BMP_temperature;BMP_pressure;BME280_temperature;BME280_humidity;BME280_pressure;Samples;Min_cycle;Max_cycle;Signal;HPM_P1;HPM_P2
2023/08/24 00:01:31;;;;;;;9.10;6.20;;;;;;;15.60;100.00;99338.70;109680;1250;73425;-69
2023/08/24 00:03:58;;;;;;;9.20;6.50;;;;;;;15.59;100.00;99338.46;109608;1251;67569;-68
2023/08/24 00:06:25;;;;;;;6.90;6.20;;;;;;;15.61;100.00;99338.88;109606;1250;72452;-68
2023/08/24 00:08:51;;;;;;;7.20;6.30;;;;;;;15.64;100.00;99337.59;109599;1251;60272;-68
2023/08/24 00:11:18;;;;;;;8.70;5.90;;;;;;;15.62;100.00;99331.40;109625;1250;58854;-68
2023/08/24 00:13:48;;;;;;;7.50;5.60;;;;;;;15.60;100.00;99333.34;109514;1251;73239;-68
2023/08/24 00:16:16;;;;;;;6.20;5.20;;;;;;;15.57;100.00;99337.63;109673;1251;67681;-68
2023/08/24 00:18:42;;;;;;;7.60;6.30;;;;;;;15.56;100.00;99333.76;109567;1251;72353;-69
2023/08/24 00:21:09;;;;;;;7.00;6.10;;;;;;;15.54;100.00;99328.96;109581;1250;60451;-69
2023/08/24 00:23:35;;;;;;;6.10;5.50;;;;;;;15.53;100.00;99332.02;109582;1251;58865;-69
2023/08/24 00:26:02;;;;;;;6.70;6.10;;;;;;;15.48;100.00;99332.30;109600;1250;73269;-69
2023/08/24 00:28:29;;;;;;;6.70;5.90;;;;;;;15.41;100.00;99334.04;109573;1251;67681;-69
2023/08/24 00:30:55;;;;;;;9.40;5.80;;;;;;;15.37;100.00;99334.94;109665;1251;72574;-69
2023/08/24 00:33:22;;;;;;;6.20;5.60;;;;;;;15.33;100.00;99334.48;109586;1250;59461;-69
2023/08/24 00:35:48;;;;;;;6.50;5.40;;;;;;;15.29;100.00;99333.58;109581;1251;58904;-69
2023/08/24 00:38:15;;;;;;;7.10;5.70;;;;;;;15.24;100.00;99335.26;109532;1251;60245;-69
2023/08/24 00:40:43;;;;;;;6.40;5.50;;;;;;;15.19;100.00;99337.71;109539;1250;67882;-69
2023/08/24 00:43:10;;;;;;;8.10;5.20;;;;;;;15.16;100.00;99338.95;109614;1251;71515;-68
2023/08/24 00:45:37;;;;;;;5.80;5.20;;;;;;;15.12;100.00;99337.86;109649;1250;60543;-68
2023/08/24 00:48:04;;;;;;;10.60;4.90;;;;;;;15.08;100.00;99341.28;109632;1250;59161;-68
2023/08/24 00:50:31;;;;;;;5.10;4.70;;;;;;;15.02;100.00;99343.23;109541;1251;74768;-68
2023/08/24 00:52:57;;;;;;;5.50;5.00;;;;;;;14.97;100.00;99341.98;109667;1251;68165;-68
2023/08/24 00:55:24;;;;;;;6.60;4.90;;;;;;;14.88;100.00;99340.31;109555;1251;72742;-69
2023/08/24 00:57:53;;;;;;;11.50;5.30;;;;;;;14.73;100.00;99338.30;109645;1251;60864;-69
2023/08/24 01:00:19;;;;;;;5.30;4.80;;;;;;;14.64;100.00;99334.81;109448;1251;60225;-68
2023/08/24 01:02:46;;;;;;;9.90;5.10;;;;;;;14.61;100.00;99338.36;109500;1251;74682;-68
2023/08/24 01:05:14;;;;;;;5.20;4.70;;;;;;;14.58;100.00;99335.83;109511;1251;66376;-68
2023/08/24 01:07:40;;;;;;;6.50;5.40;;;;;;;14.58;100.00;99339.54;109579;1251;71359;-68
2023/08/24 01:10:09;;;;;;;6.30;4.70;;;;;;;14.59;100.00;99337.06;109587;1250;61244;-68
2023/08/24 01:12:47;;;;;;;6.40;5.00;;;;;;;14.58;100.00;99334.63;109547;1251;58912;-68
2023/08/24 01:15:15;;;;;;;5.90;5.10;;;;;;;14.58;100.00;99336.52;109530;1251;74466;-68
2023/08/24 01:17:42;;;;;;;6.10;4.60;;;;;;;14.59;100.00;99336.99;109538;1250;66565;-68
2023/08/24 01:20:10;;;;;;;9.10;5.30;;;;;;;14.58;100.00;99336.60;109531;1251;71622;-68
2023/08/24 01:22:43;;;;;;;5.70;5.20;;;;;;;14.57;100.00;99332.73;109477;1251;61077;-68
2023/08/24 01:25:16;;;;;;;6.60;5.20;;;;;;;14.59;100.00;99329.86;109640;1251;60580;-68
2023/08/24 01:27:43;;;;;;;6.90;6.20;;;;;;;14.59;100.00;99329.77;109612;1250;73452;-69
2023/08/24 01:30:10;;;;;;;6.10;5.40;;;;;;;14.62;100.00;99328.77;109488;1251;67713;-68
2023/08/24 01:32:36;;;;;;;6.10;5.50;;;;;;;14.64;100.00;99326.55;109648;1250;72614;-69
2023/08/24 01:35:09;;;;;;;5.60;5.10;;;;;;;14.64;100.00;99332.35;109611;1250;60634;-69
2023/08/24 01:37:37;;;;;;;6.40;5.20;;;;;;;14.62;100.00;99328.35;109695;1250;59375;-68
2023/08/24 01:40:15;;;;;;;8.00;5.40;;;;;;;14.59;100.00;99325.41;109551;1250;72878;-68
2023/08/24 01:42:56;;;;;;;5.50;5.00;;;;;;;14.55;100.00;99322.72;109535;1250;68142;-69
2023/08/24 01:45:25;;;;;;;6.30;5.40;;;;;;;14.49;100.00;99321.45;109580;1250;71177;-69
2023/08/24 01:47:52;;;;;;;6.40;5.70;;;;;;;14.44;100.00;99327.57;109540;1250;59089;-68
2023/08/24 01:50:19;;;;;;;11.20;5.80;;;;;;;14.37;100.00;99324.36;109543;1250;60013;-68
2023/08/24 01:52:45;;;;;;;6.30;4.80;;;;;;;14.29;100.00;99323.23;109556;1250;72999;-68
2023/08/24 01:55:12;;;;;;;7.90;5.60;;;;;;;14.22;100.00;99322.44;109659;1250;67904;-68
2023/08/24 01:57:38;;;;;;;5.80;5.30;;;;;;;14.17;100.00;99322.45;109544;1250;72447;-68
2023/08/24 02:00:09;;;;;;;10.70;5.90;;;;;;;14.12;100.00;99321.10;109442;1250;59041;-69
2023/08/24 02:02:42;;;;;;;5.70;5.10;;;;;;;14.11;100.00;99327.67;109631;1251;60341;-69
2023/08/24 02:05:08;;;;;;;6.50;5.80;;;;;;;14.09;100.00;99327.02;109703;1250;73668;-68
2023/08/24 02:07:35;;;;;;;8.50;5.30;;;;;;;14.08;100.00;99329.17;109525;1250;66639;-68
2023/08/24 02:10:03;;;;;;;6.50;4.50;;;;;;;14.07;100.00;99331.93;109638;1250;71173;-68
2023/08/24 02:12:30;;;;;;;7.40;5.20;;;;;;;14.07;100.00;99332.02;109639;1250;61923;-68
2023/08/24 02:14:57;;;;;;;6.00;5.00;;;;;;;14.06;100.00;99335.26;109647;1250;60768;-68
2023/08/24 02:17:23;;;;;;;5.60;5.00;;;;;;;14.07;100.00;99337.08;109653;1250;74358;-68
2023/08/24 02:19:51;;;;;;;6.90;6.20;;;;;;;14.09;100.00;99336.52;109638;1250;67704;-68
2023/08/24 02:22:17;;;;;;;5.30;4.90;;;;;;;14.09;100.00;99330.84;109596;1250;72426;-68
2023/08/24 02:24:44;;;;;;;6.70;5.40;;;;;;;14.07;100.00;99337.65;109682;1250;58902;-68
2023/08/24 02:27:10;;;;;;;6.00;5.40;;;;;;;14.06;100.00;99338.46;109556;1250;60190;-68
2023/08/24 02:29:39;;;;;;;7.50;5.20;;;;;;;14.04;100.00;99335.08;109665;1250;73355;-68
2023/08/24 02:32:06;;;;;;;7.40;4.90;;;;;;;14.01;100.00;99335.30;109709;1250;66428;-68
2023/08/24 02:34:33;;;;;;;6.60;5.90;;;;;;;13.98;100.00;99335.29;109598;1251;71177;-69
2023/08/24 02:36:59;;;;;;;6.60;5.40;;;;;;;13.97;100.00;99336.85;109611;1250;62022;-68
2023/08/24 02:39:26;;;;;;;7.20;5.30;;;;;;;13.99;100.00;99338.38;109588;1251;60090;-68
2023/08/24 02:41:52;;;;;;;6.30;5.60;;;;;;;14.01;100.00;99336.02;109664;1250;59111;-68
2023/08/24 02:44:19;;;;;;;6.00;5.40;;;;;;;14.03;100.00;99339.77;109604;1249;66548;-68
2023/08/24 02:46:47;;;;;;;6.00;5.30;;;;;;;14.06;100.00;99339.90;109635;1251;72493;-68
2023/08/24 02:49:14;;;;;;;7.40;6.00;;;;;;;14.07;100.00;99335.34;109598;1250;61885;-68
2023/08/24 02:51:43;;;;;;;11.10;6.20;;;;;;;14.07;100.00;99335.38;109638;1250;60479;-68
2023/08/24 02:54:11;;;;;;;6.60;6.00;;;;;;;14.06;100.00;99336.16;109723;1250;73488;-68
2023/08/24 02:56:37;;;;;;;9.50;6.50;;;;;;;14.07;100.00;99335.92;109668;1250;67367;-69
2023/08/24 02:59:04;;;;;;;6.90;6.00;;;;;;;14.07;100.00;99336.98;109606;1250;71466;-67
2023/08/24 03:01:30;;;;;;;7.80;5.70;;;;;;;14.10;100.00;99332.65;109607;1250;61787;-69
2023/08/24 03:03:57;;;;;;;9.70;7.30;;;;;;;14.15;100.00;99333.02;109713;1250;60220;-68
2023/08/24 03:06:24;;;;;;;7.60;6.00;;;;;;;14.18;100.00;99336.77;109592;1250;74341;-68
2023/08/24 03:08:51;;;;;;;9.40;6.00;;;;;;;14.19;100.00;99336.78;109626;1250;67702;-69
2023/08/24 03:11:18;;;;;;;12.30;6.50;;;;;;;14.20;100.00;99338.93;109639;1250;72587;-68
2023/08/24 03:13:45;;;;;;;6.50;5.80;;;;;;;14.19;100.00;99337.48;109634;1250;61737;-68
2023/08/24 03:16:11;;;;;;;7.10;6.40;;;;;;;14.18;100.00;99337.75;109564;1250;60180;-68
2023/08/24 03:18:38;;;;;;;8.30;6.30;;;;;;;14.19;100.00;99339.26;109486;1250;74950;-68
2023/08/24 03:21:05;;;;;;;10.00;6.20;;;;;;;14.22;100.00;99335.89;109634;1250;67939;-69
2023/08/24 03:23:33;;;;;;;8.70;6.50;;;;;;;14.25;100.00;99340.85;109608;1250;72976;-68
2023/08/24 03:25:59;;;;;;;6.00;5.40;;;;;;;14.27;100.00;99338.10;109494;1250;62631;-67
2023/08/24 03:28:26;;;;;;;7.30;6.60;;;;;;;14.29;100.00;99342.36;109684;1250;59220;-68
2023/08/24 03:30:54;;;;;;;10.00;6.70;;;;;;;14.32;100.00;99343.89;109585;1250;59578;-67
2023/08/24 03:33:21;;;;;;;9.90;6.30;;;;;;;14.36;100.00;99347.98;109630;1250;67877;-68
2023/08/24 03:35:48;;;;;;;7.80;6.00;;;;;;;14.40;100.00;99349.94;109609;1250;72579;-68
2023/08/24 03:38:14;;;;;;;22.00;6.30;;;;;;;14.46;100.00;99348.52;109515;1250;61836;-68
2023/08/24 03:40:41;;;;;;;6.00;5.50;;;;;;;14.54;100.00;99349.02;109706;1250;60111;-68
2023/08/24 03:43:08;;;;;;;7.40;6.10;;;;;;;14.67;100.00;99347.12;109708;1250;58980;-68
2023/08/24 03:45:34;;;;;;;6.10;5.50;;;;;;;14.81;100.00;99348.73;109672;1250;68018;-68
2023/08/24 03:48:01;;;;;;;7.00;5.60;;;;;;;14.95;100.00;99345.64;109646;1250;71055;-67
2023/08/24 03:50:28;;;;;;;10.60;5.50;;;;;;;15.05;100.00;99340.93;109526;1250;60271;-68
2023/08/24 03:52:55;;;;;;;10.90;5.10;;;;;;;15.16;100.00;99337.13;109693;1250;59031;-68
2023/08/24 03:55:22;;;;;;;6.70;6.00;;;;;;;15.28;100.00;99337.35;109541;1250;74425;-69
2023/08/24 03:57:49;;;;;;;11.00;5.70;;;;;;;15.45;100.00;99335.35;109535;1250;66453;-68
2023/08/24 04:00:16;;;;;;;6.40;5.50;;;;;;;15.64;100.00;99335.83;109670;1250;72643;-69
2023/08/24 04:02:44;;;;;;;5.60;5.10;;;;;;;15.85;100.00;99337.05;109521;1252;60798;-69
2023/08/24 04:05:15;;;;;;;5.90;5.20;;;;;;;16.07;100.00;99332.98;109569;1251;60263;-68
2023/08/24 04:07:42;;;;;;;8.60;5.40;;;;;;;16.28;100.00;99331.17;109705;1250;73377;-69
2023/08/24 04:10:09;;;;;;;10.90;5.20;;;;;;;16.53;100.00;99332.10;109589;1250;67791;-68
2023/08/24 04:12:36;;;;;;;8.00;5.20;;;;;;;16.81;100.00;99330.40;109631;1250;72688;-69
2023/08/24 04:15:03;;;;;;;5.10;4.60;;;;;;;17.11;100.00;99325.86;109647;1250;61750;-69
2023/08/24 04:17:29;;;;;;;5.20;4.50;;;;;;;17.43;100.00;99327.88;109651;1249;60074;-69
2023/08/24 04:19:56;;;;;;;4.80;4.40;;;;;;;17.66;100.00;99325.54;109645;1250;74436;-68
2023/08/24 04:22:23;;;;;;;8.00;5.30;;;;;;;17.88;100.00;99326.85;109430;1250;66615;-68
2023/08/24 04:24:50;;;;;;;5.10;4.20;;;;;;;18.10;100.00;99318.48;109649;1250;71095;-68
2023/08/24 04:27:16;;;;;;;6.70;4.90;;;;;;;18.32;100.00;99316.92;109667;1250;59005;-68
2023/08/24 04:29:43;;;;;;;7.20;4.60;;;;;;;18.55;100.00;99311.13;109645;1250;60110;-68
2023/08/24 04:32:09;;;;;;;6.00;5.50;;;;;;;18.80;100.00;99306.97;109657;1250;73245;-69
2023/08/24 04:34:36;;;;;;;5.60;5.10;;;;;;;19.06;100.00;99305.04;109716;1250;67558;-68
2023/08/24 04:37:02;;;;;;;7.20;5.30;;;;;;;19.38;100.00;99301.05;109655;1250;72648;-69
2023/08/24 04:39:30;;;;;;;8.00;4.80;;;;;;;19.72;100.00;99303.30;109647;1250;59101;-68
2023/08/24 04:41:57;;;;;;;13.90;5.50;;;;;;;20.06;100.00;99302.27;109514;1250;59046;-68
2023/08/24 04:44:24;;;;;;;8.40;5.70;;;;;;;20.42;100.00;99301.42;109460;1250;73624;-67
2023/08/24 04:46:51;;;;;;;5.80;5.10;;;;;;;20.76;100.00;99297.48;109550;1250;65791;-67
2023/08/24 04:49:17;;;;;;;8.80;6.00;;;;;;;21.02;100.00;99294.59;109444;1250;73015;-70
2023/08/24 04:51:44;;;;;;;11.70;6.10;;;;;;;21.24;100.00;99298.16;109498;1250;59055;-69
2023/08/24 04:54:11;;;;;;;13.30;6.80;;;;;;;21.47;100.00;99301.86;109671;1249;60053;-71
2023/08/24 04:56:38;;;;;;;8.00;6.80;;;;;;;21.67;100.00;99300.73;109614;1250;74279;-62
2023/08/24 04:59:04;;;;;;;9.60;6.60;;;;;;;21.79;100.00;99300.23;109657;1250;67111;-64
2023/08/24 05:01:31;;;;;;;7.60;6.90;;;;;;;21.79;100.00;99298.23;109407;1250;71869;-63
2023/08/24 05:03:58;;;;;;;8.40;7.30;;;;;;;21.83;100.00;99299.27;109459;1250;59736;-71
2023/08/24 05:06:24;;;;;;;11.20;7.80;;;;;;;21.97;100.00;99299.19;109505;1250;59148;-72
2023/08/24 05:08:51;;;;;;;8.70;7.20;;;;;;;22.18;100.00;99294.20;109481;1250;73475;-71
2023/08/24 05:11:19;;;;;;;11.00;7.80;;;;;;;22.36;100.00;99291.13;109485;1250;67901;-68
2023/08/24 05:13:46;;;;;;;10.40;8.10;;;;;;;22.45;100.00;99294.06;109450;1250;72350;-72
2023/08/24 05:16:13;;;;;;;13.40;9.00;;;;;;;22.60;100.00;99295.46;109457;1250;203515;-68
2023/08/24 05:18:40;;;;;;;14.50;9.10;;;;;;;22.66;100.00;99298.59;109608;1250;60343;-70
2023/08/24 05:21:06;;;;;;;12.40;9.90;;;;;;;22.86;100.00;99297.91;109613;1251;59214;-70
2023/08/24 05:23:33;;;;;;;12.50;10.10;;;;;;;23.24;100.00;99295.45;109631;1250;67927;-68
2023/08/24 05:26:00;;;;;;;12.30;8.70;;;;;;;23.63;100.00;99293.82;109629;1250;72666;-69
2023/08/24 05:28:27;;;;;;;10.80;8.70;;;;;;;23.93;100.00;99297.20;109569;1250;59076;-71
2023/08/24 05:30:54;;;;;;;11.90;9.10;;;;;;;24.23;100.00;99299.33;109622;1250;60009;-66
2023/08/24 05:33:21;;;;;;;26.70;9.70;;;;;;;24.45;100.00;99294.66;109628;1250;73801;-70
2023/08/24 05:35:48;;;;;;;11.40;9.70;;;;;;;24.67;100.00;99295.30;109594;1250;66495;-72
2023/08/24 05:38:14;;;;;;;15.70;10.60;;;;;;;24.82;100.00;99296.03;109641;1250;72725;-73
2023/08/24 05:40:42;;;;;;;11.80;10.10;;;;;;;24.96;100.00;99296.79;109598;1250;60089;-73
2023/08/24 05:43:10;;;;;;;13.60;9.80;;;;;;;25.12;100.00;99294.39;109470;1250;60119;-71
2023/08/24 05:45:36;;;;;;;11.10;9.80;;;;;;;25.39;100.00;99299.98;109615;1250;74422;-70
2023/08/24 05:48:03;;;;;;;15.10;10.70;;;;;;;25.70;100.00;99298.68;109582;1250;66891;-71
2023/08/24 05:50:30;;;;;;;10.50;8.70;;;;;;;26.00;100.00;99301.59;109554;1250;71424;-71
2023/08/24 05:52:57;;;;;;;9.50;8.60;;;;;;;26.22;100.00;99304.77;109683;1250;59045;-73
2023/08/24 05:55:23;;;;;;;13.20;8.00;;;;;;;26.38;100.00;99301.23;109661;1250;58859;-69
2023/08/24 05:57:50;;;;;;;11.00;8.10;;;;;;;26.57;100.00;99299.46;109598;1250;73104;-65
2023/08/24 06:00:17;;;;;;;11.20;8.80;;;;;;;26.65;100.00;99297.63;109679;1250;67934;-70
2023/08/24 06:02:44;;;;;;;9.30;8.50;;;;;;;26.72;99.74;99296.56;109530;1249;71914;-72
2023/08/24 06:05:11;;;;;;;12.20;8.90;;;;;;;26.83;99.04;99297.75;109571;1250;60316;-65
2023/08/24 06:07:38;;;;;;;14.00;9.00;;;;;;;26.91;99.99;99298.31;109608;1250;60328;-66
2023/08/24 06:10:05;;;;;;;9.90;8.60;;;;;;;27.02;100.00;99294.31;109613;1250;74638;-70
2023/08/24 06:12:32;;;;;;;12.70;9.10;;;;;;;27.26;99.95;99290.73;109649;1250;66619;-70
2023/08/24 06:15:01;;;;;;;13.00;9.00;;;;;;;27.53;97.93;99293.02;109650;1250;72885;-69
2023/08/24 06:17:28;;;;;;;14.70;9.30;;;;;;;27.75;95.85;99290.50;109598;1251;60223;-67
2023/08/24 06:19:55;;;;;;;16.50;8.40;;;;;;;27.95;94.53;99287.70;109535;1250;58957;-66
2023/08/24 06:22:23;;;;;;;12.40;8.50;;;;;;;28.20;92.37;99291.41;109635;1251;75401;-68
2023/08/24 06:24:49;;;;;;;10.30;8.10;;;;;;;28.45;89.32;99291.14;109609;1250;66621;-65
2023/08/24 06:27:16;;;;;;;11.60;7.80;;;;;;;28.64;88.15;99289.33;109489;1250;70597;-67
2023/08/24 06:29:43;;;;;;;11.80;8.60;;;;;;;29.00;87.52;99288.16;109574;1250;59090;-64
2023/08/24 06:32:09;;;;;;;10.00;8.20;;;;;;;29.45;83.79;99287.58;109510;1250;60056;-67
2023/08/24 06:34:36;;;;;;;8.80;7.80;;;;;;;29.73;81.90;99290.30;109585;1250;74704;-67
2023/08/24 06:37:03;;;;;;;11.50;8.20;;;;;;;30.05;79.86;99289.42;109688;1250;67685;-68
2023/08/24 06:39:30;;;;;;;14.00;8.00;;;;;;;30.36;76.66;99291.49;109600;1250;72503;-68
2023/08/24 06:41:56;;;;;;;11.10;8.70;;;;;;;30.60;72.35;99294.34;109605;1253;61171;-69
2023/08/24 06:44:25;;;;;;;9.40;7.80;;;;;;;30.71;67.98;99293.34;109539;1250;59083;-73
2023/08/24 06:46:51;;;;;;;9.30;7.80;;;;;;;30.75;67.74;99294.19;109509;1250;74711;-71
2023/08/24 06:49:19;;;;;;;10.20;7.70;;;;;;;30.92;67.61;99294.67;109706;1250;68018;-71
2023/08/24 06:51:46;;;;;;;17.30;7.80;;;;;;;31.08;65.51;99297.95;109523;1250;71172;-70
2023/08/24 06:54:14;;;;;;;9.60;8.20;;;;;;;31.25;65.08;99297.62;109624;1250;58980;-69
2023/08/24 06:56:41;;;;;;;10.20;7.80;;;;;;;31.42;63.58;99295.90;109600;1250;59817;-68
2023/08/24 06:59:09;;;;;;;14.30;8.80;;;;;;;31.67;61.33;99297.23;109573;1250;73274;-67
2023/08/24 07:01:35;;;;;;;15.60;9.50;;;;;;;31.89;60.32;99293.61;109530;1251;67951;-69
2023/08/24 07:04:04;;;;;;;15.30;9.70;;;;;;;32.14;58.97;99296.73;109677;1250;72590;-68
2023/08/24 07:06:33;;;;;;;17.40;8.60;;;;;;;32.88;56.25;99292.34;109650;1250;60018;-66
2023/08/24 07:09:00;;;;;;;10.00;7.30;;;;;;;33.80;48.52;99290.75;109665;1250;59094;-74
2023/08/24 07:11:26;;;;;;;16.00;9.30;;;;;;;34.50;43.46;99291.35;109513;1250;73427;-70
2023/08/24 07:13:53;;;;;;;12.20;8.40;;;;;;;34.95;44.31;99293.48;109654;1250;66412;-72
2023/08/24 07:16:20;;;;;;;14.90;8.20;;;;;;;35.12;42.82;99288.73;109644;1250;71325;-75
2023/08/24 07:18:46;;;;;;;13.60;8.00;;;;;;;35.36;41.69;99288.95;109631;1250;58996;-71
2023/08/24 07:21:14;;;;;;;13.40;8.40;;;;;;;35.65;40.95;99290.02;109615;1251;60634;-76
2023/08/24 07:23:41;;;;;;;17.60;9.20;;;;;;;35.93;39.83;99290.22;109697;1250;74722;-71
2023/08/24 07:26:09;;;;;;;9.60;6.40;;;;;;;36.11;38.31;99287.21;109626;1250;66673;-73
2023/08/24 07:28:35;;;;;;;8.50;5.60;;;;;;;36.21;34.87;99290.19;109586;1251;72726;-73
2023/08/24 07:31:11;;;;;;;11.20;6.00;;;;;;;36.23;33.47;99291.83;109611;1250;58901;-74
2023/08/24 07:33:41;;;;;;;9.30;4.60;;;;;;;36.15;32.36;99292.44;109646;1250;60224;-72
2023/08/24 07:36:07;;;;;;;5.50;3.80;;;;;;;35.98;31.57;99291.34;109664;1250;74728;-73
2023/08/24 07:38:34;;;;;;;6.90;4.50;;;;;;;35.78;31.46;99292.60;109658;1250;67170;-71
2023/08/24 07:41:00;;;;;;;7.30;4.80;;;;;;;35.69;31.66;99294.88;109672;1250;72655;-73
2023/08/24 07:43:27;;;;;;;6.70;4.10;;;;;;;35.51;31.46;99296.71;109607;1250;59143;-70
2023/08/24 07:45:54;;;;;;;10.40;4.30;;;;;;;35.31;31.49;99299.34;109595;1250;60098;-69
2023/08/24 07:48:21;;;;;;;7.90;4.30;;;;;;;35.27;31.95;99302.11;109675;1250;73370;-75
2023/08/24 07:50:47;;;;;;;7.20;3.60;;;;;;;35.46;32.03;99306.31;109640;1251;67962;-72
2023/08/24 07:53:14;;;;;;;5.30;3.30;;;;;;;35.68;31.41;99301.29;109615;1250;73215;-72
2023/08/24 07:55:42;;;;;;;5.30;3.50;;;;;;;35.75;31.20;99298.89;109545;1250;59113;-70
2023/08/24 07:58:09;;;;;;;13.50;4.50;;;;;;;35.99;30.76;99300.45;109563;1250;59255;-68
2023/08/24 08:00:35;;;;;;;6.90;3.70;;;;;;;36.18;30.21;99299.96;109630;1250;74667;-74
2023/08/24 08:03:02;;;;;;;5.50;2.80;;;;;;;36.16;30.36;99297.90;109679;1250;66721;-72
2023/08/24 08:05:29;;;;;;;4.30;3.60;;;;;;;36.06;30.31;99298.72;109639;1250;72944;-70
2023/08/24 08:07:55;;;;;;;4.30;3.90;;;;;;;35.97;30.76;99296.73;109594;1250;59315;-70
2023/08/24 08:10:22;;;;;;;3.70;2.60;;;;;;;36.10;30.55;99297.92;109663;1250;60479;-73
2023/08/24 08:12:48;;;;;;;3.80;2.70;;;;;;;36.21;30.46;99296.27;109614;1250;73277;-68
2023/08/24 08:15:15;;;;;;;3.20;2.90;;;;;;;36.25;29.98;99294.99;109688;1250;66560;-70
2023/08/24 08:17:42;;;;;;;3.30;2.70;;;;;;;36.17;29.76;99292.41;109626;1250;72679;-67
2023/08/24 08:20:09;;;;;;;4.40;2.50;;;;;;;36.17;29.57;99296.05;109582;1250;59681;-70
2023/08/24 08:22:38;;;;;;;6.60;3.10;;;;;;;36.37;29.94;99292.63;109554;1250;60306;-69
2023/08/24 08:25:07;;;;;;;5.40;2.90;;;;;;;36.58;29.85;99287.17;109515;1250;73167;-72
2023/08/24 08:27:34;;;;;;;8.00;2.80;;;;;;;36.62;29.40;99284.84;109460;1251;67063;-69
2023/08/24 08:30:00;;;;;;;3.90;2.20;;;;;;;36.58;29.04;99284.69;109589;1250;71796;-70
2023/08/24 08:32:27;;;;;;;4.30;2.30;;;;;;;36.77;28.97;99284.23;109524;1250;60357;-72
2023/08/24 08:34:56;;;;;;;4.90;1.80;;;;;;;37.27;28.50;99283.27;109644;1250;60085;-71
2023/08/24 08:37:23;;;;;;;5.10;2.30;;;;;;;37.82;27.27;99281.36;109541;1250;74528;-71
2023/08/24 08:39:50;;;;;;;2.00;1.80;;;;;;;38.13;26.81;99278.66;109533;1250;66363;-73
2023/08/24 08:42:17;;;;;;;5.90;1.90;;;;;;;38.38;25.95;99280.45;109537;1250;71284;-69
2023/08/24 08:44:46;;;;;;;4.10;1.50;;;;;;;38.54;25.81;99277.52;109484;1251;59038;-71
2023/08/24 08:47:13;;;;;;;2.90;1.50;;;;;;;38.56;24.64;99279.78;109258;1251;59034;-71
2023/08/24 08:49:40;;;;;;;5.50;1.90;;;;;;;38.36;24.12;99281.12;109439;1250;73249;-73
2023/08/24 08:52:06;;;;;;;4.20;2.10;;;;;;;38.30;24.67;99276.36;109496;1250;67858;-74
2023/08/24 08:54:33;;;;;;;2.50;1.60;;;;;;;38.45;25.02;99278.56;109479;1250;73089;-71
2023/08/24 08:57:00;;;;;;;3.70;1.40;;;;;;;38.62;24.52;99277.23;109360;1251;59184;-73
2023/08/24 08:59:29;;;;;;;3.30;1.60;;;;;;;38.52;24.01;99274.92;109380;1250;59118;-72
2023/08/24 09:01:56;;;;;;;5.20;1.80;;;;;;;38.37;24.23;99277.09;109529;1250;73184;-72
2023/08/24 09:04:24;;;;;;;3.30;1.90;;;;;;;38.33;24.22;99278.34;109513;1251;67741;-72
2023/08/24 09:06:50;;;;;;;2.70;1.80;;;;;;;38.30;24.79;99277.06;109469;1250;72359;-71
2023/08/24 09:09:17;;;;;;;3.10;1.40;;;;;;;38.27;24.10;99276.27;109506;1250;60216;-70
2023/08/24 09:11:47;;;;;;;2.10;1.30;;;;;;;38.08;24.16;99271.73;109540;1250;60797;-70
2023/08/24 09:14:14;;;;;;;4.00;1.20;;;;;;;37.82;23.84;99271.00;109452;1250;74646;-73
2023/08/24 09:16:43;;;;;;;4.70;1.50;;;;;;;37.59;23.33;99268.93;109509;1250;68532;-72
2023/08/24 09:19:13;;;;;;;3.70;1.40;;;;;;;37.59;24.46;99268.15;109545;1250;72736;-72
2023/08/24 09:21:41;;;;;;;2.00;1.70;;;;;;;37.75;24.84;99264.70;109520;1250;60220;-74
2023/08/24 09:24:08;;;;;;;3.00;1.70;;;;;;;37.82;24.41;99266.07;109535;1250;60586;-68
2023/08/24 09:26:36;;;;;;;2.70;1.90;;;;;;;37.88;24.69;99264.52;109712;1250;73479;-68
2023/08/24 09:29:13;;;;;;;2.40;1.60;;;;;;;37.72;24.67;99266.52;109654;1250;67700;-68
2023/08/24 09:31:41;;;;;;;2.90;1.80;;;;;;;37.22;24.75;99270.27;109632;1250;71525;-69
2023/08/24 09:34:07;;;;;;;1.90;1.40;;;;;;;36.94;24.58;99270.11;109592;1250;59083;-71
2023/08/24 09:36:34;;;;;;;2.60;1.60;;;;;;;37.15;24.30;99263.02;109666;1250;60446;-68
2023/08/24 09:39:05;;;;;;;1.90;1.80;;;;;;;37.56;24.54;99263.77;109667;1250;73834;-67
2023/08/24 09:41:43;;;;;;;3.30;1.80;;;;;;;37.71;24.46;99261.48;109690;1250;67847;-67
2023/08/24 09:44:12;;;;;;;2.90;1.60;;;;;;;37.62;24.78;99257.91;109553;1255;72948;-68
2023/08/24 09:46:42;;;;;;;3.00;1.80;;;;;;;37.63;24.18;99257.86;109673;1250;60265;-69
2023/08/24 09:49:09;;;;;;;3.10;1.70;;;;;;;37.63;23.89;99255.88;109630;1251;59179;-68
2023/08/24 09:51:37;;;;;;;8.10;1.60;;;;;;;37.53;24.04;99253.69;109713;1250;73126;-68
2023/08/24 09:54:08;;;;;;;4.90;1.50;;;;;;;37.32;24.55;99257.41;109706;1250;67664;-67
2023/08/24 09:56:39;;;;;;;2.80;1.60;;;;;;;36.89;24.79;99251.66;109648;1250;71292;-67
2023/08/24 09:59:13;;;;;;;2.90;1.30;;;;;;;36.19;25.74;99255.54;109658;1250;60251;-67
2023/08/24 10:01:43;;;;;;;3.00;1.60;;;;;;;35.81;26.00;99253.64;109652;1250;60830;-67
2023/08/24 10:04:11;;;;;;;2.20;1.20;;;;;;;35.70;25.97;99253.30;109711;1250;74688;-66
2023/08/24 10:06:39;;;;;;;1.80;1.50;;;;;;;35.59;25.92;99249.60;109665;1250;68267;-66
2023/08/24 10:09:07;;;;;;;2.30;1.50;;;;;;;35.49;26.01;99241.99;109708;1250;72541;-66
2023/08/24 10:11:36;;;;;;;1.90;1.60;;;;;;;35.51;26.33;99242.31;109653;1250;60973;-66
2023/08/24 10:14:10;;;;;;;1.50;1.40;;;;;;;35.66;26.13;99239.27;109525;1250;60159;-66
2023/08/24 10:16:37;;;;;;;2.10;1.60;;;;;;;35.86;25.34;99236.27;109683;1250;73409;-67
2023/08/24 10:19:03;;;;;;;4.40;1.60;;;;;;;36.01;25.45;99231.09;109559;1250;67708;-68
2023/08/24 10:21:30;;;;;;;1.80;1.50;;;;;;;36.11;25.34;99234.23;109517;1250;72766;-68
2023/08/24 10:23:57;;;;;;;2.00;1.80;;;;;;;35.93;25.60;99233.49;109522;1253;59996;-71
2023/08/24 10:26:24;;;;;;;2.90;1.70;;;;;;;35.56;26.22;99233.20;109656;1250;60267;-72
2023/08/24 10:28:51;;;;;;;4.30;1.80;;;;;;;35.13;26.80;99237.68;109707;1250;73576;-70
2023/08/24 10:31:18;;;;;;;2.40;1.90;;;;;;;34.64;27.36;99241.34;109566;1250;67786;-70
2023/08/24 10:33:45;;;;;;;6.10;2.00;;;;;;;34.18;28.16;99241.71;109643;1250;72665;-68
2023/08/24 10:36:13;;;;;;;3.60;1.40;;;;;;;33.94;28.53;99238.37;109500;1251;59096;-68
2023/08/24 10:38:42;;;;;;;4.80;1.50;;;;;;;34.02;28.51;99237.73;109718;1250;58885;-70
2023/08/24 10:41:08;;;;;;;2.90;2.20;;;;;;;34.06;27.66;99237.98;109649;1250;74664;-71
2023/08/24 10:43:38;;;;;;;9.70;2.40;;;;;;;33.81;28.05;99238.76;109692;1250;67001;-70
2023/08/24 10:46:16;;;;;;;2.60;1.50;;;;;;;33.49;28.75;99239.28;109450;1250;72599;-70
2023/08/24 10:48:44;;;;;;;2.20;1.50;;;;;;;33.17;29.51;99236.34;109690;1250;59116;-67
2023/08/24 10:51:13;;;;;;;3.50;1.50;;;;;;;32.93;29.92;99231.98;109665;1250;59270;-67
2023/08/24 10:53:40;;;;;;;4.00;1.60;;;;;;;32.75;29.83;99231.40;109692;1250;74447;-69
2023/08/24 10:56:39;;;;;;;2.30;1.50;;;;;;;32.71;30.22;99228.23;109659;1250;67948;-66
2023/08/24 10:59:15;;;;;;;3.10;1.50;;;;;;;32.65;30.17;99224.27;109634;1250;72566;-66
2023/08/24 11:02:03;;;;;;;1.50;1.40;;;;;;;32.68;30.24;99217.45;109638;1250;60241;-66
2023/08/24 11:04:30;;;;;;;2.00;1.50;;;;;;;32.95;29.92;99215.58;109661;1250;60201;-69
2023/08/24 11:07:04;;;;;;;4.50;1.70;;;;;;;33.25;29.14;99214.27;109492;1250;73628;-66
2023/08/24 11:09:49;;;;;;;2.80;1.60;;;;;;;33.46;29.50;99209.61;109723;1250;67886;-66
2023/08/24 11:12:15;;;;;;;4.70;1.80;;;;;;;33.86;29.24;99208.47;109693;1250;72441;-67
2023/08/24 11:14:49;;;;;;;6.50;1.70;;;;;;;34.22;28.73;99209.85;109622;1251;59347;-72
2023/08/24 11:17:20;;;;;;;2.00;1.40;;;;;;;34.46;28.97;99205.46;109740;1250;60185;-72
2023/08/24 11:19:50;;;;;;;2.40;1.40;;;;;;;34.37;28.46;99203.99;109602;1250;74483;-69
2023/08/24 11:22:17;;;;;;;2.10;1.40;;;;;;;34.18;28.24;99200.55;109608;1250;67696;-67